createdAt,value
2019-04-23T00:01:49.315Z,4.87
2019-04-23T00:04:23.969Z,4.97
2019-04-23T00:07:13.302Z,4.90
2019-04-23T00:09:32.977Z,4.93
2019-04-23T00:12:11.770Z,5.13
2019-04-23T00:14:47.579Z,4.80
2019-04-23T00:17:24.690Z,5.10
2019-04-23T00:19:55.822Z,5.17
2019-04-23T00:22:43.801Z,5.30
2019-04-23T00:28:16.114Z,5.50
2019-04-23T00:30:50.245Z,5.47
2019-04-23T00:33:23.920Z,5.03
2019-04-23T00:35:50.388Z,5.27
2019-04-23T00:38:26.815Z,5.30
2019-04-23T00:41:01.203Z,5.03
2019-04-23T00:43:34.208Z,5.10
2019-04-23T00:46:11.385Z,5.37
2019-04-23T00:48:53.117Z,5.07
2019-04-23T00:51:16.746Z,5.37
2019-04-23T00:54:09.143Z,6.00
2019-04-23T01:01:38.890Z,5.80
2019-04-23T01:04:15.071Z,5.23
2019-04-23T01:06:41.453Z,5.40
2019-04-23T01:09:14.147Z,6.33
2019-04-23T01:14:22.984Z,6.00
2019-04-23T01:16:55.019Z,5.77
2019-04-23T01:19:49.848Z,5.87
2019-04-23T01:22:02.343Z,6.30
2019-04-23T01:24:48.185Z,5.20
2019-04-23T01:27:51.135Z,5.77
2019-04-23T01:30:19.669Z,6.33
2019-04-23T01:32:54.743Z,5.87
2019-04-23T01:35:29.101Z,5.77
2019-04-23T01:37:58.416Z,6.10
2019-04-23T01:40:36.548Z,5.73
2019-04-23T01:43:10.709Z,5.40
2019-04-23T01:45:34.201Z,5.83
2019-04-23T01:48:21.894Z,5.63
2019-04-23T01:50:55.057Z,6.10
2019-04-23T01:53:37.386Z,5.73
2019-04-23T01:56:03.038Z,5.60
2019-04-23T02:01:09.859Z,6.67
2019-04-23T02:03:43.637Z,6.67
2019-04-23T02:08:56.830Z,6.03
2019-04-23T02:11:17.520Z,6.37
2019-04-23T02:19:11.542Z,6.03
2019-04-23T02:21:47.259Z,6.27
2019-04-23T02:24:22.880Z,6.13
2019-04-23T02:26:48.569Z,6.53
2019-04-23T02:29:36.551Z,5.83
2019-04-23T02:32:19.102Z,6.23
2019-04-23T02:40:11.341Z,6.13
2019-04-23T02:42:50.012Z,6.57
2019-04-23T02:44:56.157Z,6.77
2019-04-23T02:47:32.621Z,6.60
2019-04-23T02:52:43.072Z,6.50
2019-04-23T02:57:41.516Z,6.30
2019-04-23T03:00:28.785Z,6.07
2019-04-23T03:05:32.091Z,6.73
2019-04-23T03:13:19.356Z,7.30
2019-04-23T03:16:08.466Z,7.70
2019-04-23T03:21:44.517Z,8.23
2019-04-23T03:24:34.645Z,7.80
2019-04-23T03:27:09.148Z,8.30
2019-04-23T03:37:23.270Z,8.67
2019-04-23T03:39:56.537Z,8.50
2019-04-23T03:42:23.918Z,8.70
2019-04-23T03:47:33.167Z,8.40
2019-04-23T03:52:51.049Z,7.80
2019-04-23T03:57:41.021Z,7.07
2019-04-23T04:00:35.198Z,7.60
2019-04-23T04:06:43.681Z,6.70
2019-04-23T04:08:13.731Z,7.97
2019-04-23T04:10:48.283Z,8.33
2019-04-23T04:13:15.873Z,8.07
2019-04-23T04:15:55.726Z,8.33
2019-04-23T04:18:32.654Z,7.63
2019-04-23T04:28:38.914Z,8.27
2019-04-23T04:31:10.023Z,8.33
2019-04-23T04:36:21.756Z,8.40
2019-04-23T04:38:54.298Z,7.37
2019-04-23T04:41:25.130Z,7.80
2019-04-23T04:49:10.458Z,8.03
2019-04-23T04:51:51.887Z,7.83
2019-04-23T04:56:46.926Z,7.37
2019-04-23T04:59:39.833Z,8.37
2019-04-23T05:02:01.138Z,7.77
2019-04-23T05:07:11.435Z,8.57
2019-04-23T05:14:52.536Z,7.37
2019-04-23T05:17:42.455Z,7.73
2019-04-23T05:20:14.672Z,7.47
2019-04-23T05:22:48.824Z,7.43
2019-04-23T05:25:12.610Z,7.73
2019-04-23T05:28:07.716Z,8.07
2019-04-23T05:33:04.349Z,7.73
2019-04-23T05:35:56.122Z,7.30
2019-04-23T05:40:45.283Z,7.57
2019-04-23T05:43:15.848Z,7.20
2019-04-23T05:45:48.109Z,7.53
2019-04-23T05:51:04.309Z,8.07
2019-04-23T05:53:33.844Z,7.27
2019-04-23T05:56:02.199Z,6.77
2019-04-23T05:58:38.411Z,7.83
2019-04-23T06:01:49.239Z,7.63
2019-04-23T06:11:57.109Z,7.87
2019-04-23T06:17:03.952Z,7.00
2019-04-23T06:19:44.329Z,7.80
2019-04-23T06:22:15.199Z,6.63
2019-04-23T06:24:49.070Z,7.50
2019-04-23T06:27:13.515Z,6.83
2019-04-23T06:29:43.294Z,7.40
2019-04-23T06:32:20.658Z,7.70
2019-04-23T06:34:51.192Z,7.77
2019-04-23T06:37:38.304Z,6.70
2019-04-23T06:40:03.165Z,7.90
2019-04-23T06:42:52.134Z,7.50
2019-04-23T06:45:25.682Z,7.30
2019-04-23T06:48:02.270Z,7.07
2019-04-23T06:50:34.657Z,7.47
2019-04-23T06:53:02.463Z,7.17
2019-04-23T06:55:44.543Z,7.30
2019-04-23T06:58:19.407Z,6.60
2019-04-23T07:00:48.030Z,7.23
2019-04-23T07:06:19.234Z,7.00
2019-04-23T07:08:56.260Z,7.00
2019-04-23T07:11:23.479Z,7.35
2019-04-23T07:13:55.008Z,6.77
2019-04-23T07:16:34.676Z,7.60
2019-04-23T07:19:04.400Z,7.07
2019-04-23T07:26:41.833Z,6.77
2019-04-23T07:29:08.967Z,7.10
2019-04-23T07:31:48.412Z,6.65
2019-04-23T07:34:13.684Z,6.80
2019-04-23T07:36:53.736Z,7.03
2019-04-23T07:39:57.024Z,6.95
2019-04-23T07:45:19.359Z,5.72
2019-04-23T07:50:44.193Z,7.22
2019-04-23T07:53:33.161Z,6.83
2019-04-23T07:56:00.910Z,6.80
2019-04-23T07:58:23.796Z,6.72
2019-04-23T08:00:56.979Z,7.05
2019-04-23T08:03:30.687Z,6.70
2019-04-23T08:06:00.674Z,6.67
2019-04-23T08:08:47.431Z,6.67
2019-04-23T08:21:43.840Z,6.53
2019-04-23T08:24:45.408Z,7.05
2019-04-23T08:27:34.742Z,5.97
2019-04-23T08:30:09.508Z,7.20
2019-04-23T08:32:52.360Z,6.85
2019-04-23T08:35:23.151Z,6.70
2019-04-23T08:40:35.322Z,7.33
2019-04-23T08:43:31.483Z,6.80
2019-04-23T08:46:17.240Z,6.90
2019-04-23T08:48:50.296Z,6.78
2019-04-23T08:51:38.996Z,6.20
2019-04-23T08:54:01.454Z,5.80
2019-04-23T08:56:33.391Z,6.22
2019-04-23T08:59:09.087Z,7.05
2019-04-23T09:01:49.189Z,7.28
2019-04-23T09:04:09.343Z,6.72
2019-04-23T09:06:47.896Z,5.95
2019-04-23T09:09:20.076Z,6.85
2019-04-23T09:11:54.493Z,6.85
2019-04-23T09:14:28.273Z,6.37
2019-04-23T09:17:06.128Z,6.12
2019-04-23T09:19:46.029Z,7.05
2019-04-23T09:22:14.547Z,6.58
2019-04-23T09:27:24.523Z,6.37
2019-04-23T09:30:07.016Z,6.20
2019-04-23T09:32:52.062Z,6.10
2019-04-23T09:35:33.595Z,6.28
2019-04-23T09:38:31.630Z,5.97
2019-04-23T09:44:25.925Z,5.65
2019-04-23T09:46:47.823Z,6.20
2019-04-23T09:49:20.663Z,5.83
2019-04-23T09:52:02.450Z,6.45
2019-04-23T09:56:57.040Z,6.10
2019-04-23T10:02:04.324Z,6.42
2019-04-23T10:04:27.342Z,6.58
2019-04-23T10:07:01.557Z,5.85
2019-04-23T10:09:25.817Z,5.80
2019-04-23T10:11:56.961Z,5.60
2019-04-23T10:14:30.335Z,5.95
2019-04-23T10:17:03.980Z,6.45
2019-04-23T10:19:36.952Z,6.30
2019-04-23T10:22:09.224Z,6.12
2019-04-23T10:24:41.194Z,5.90
2019-04-23T10:27:14.757Z,5.87
2019-04-23T10:29:47.852Z,5.83
2019-04-23T10:32:19.994Z,5.95
2019-04-23T10:35:04.589Z,5.67
2019-04-23T10:37:39.335Z,5.53
2019-04-23T10:40:03.522Z,6.25
2019-04-23T10:42:37.532Z,6.00
2019-04-23T10:45:47.782Z,6.12
2019-04-23T10:49:23.118Z,6.22
2019-04-23T10:51:41.259Z,5.92
2019-04-23T10:54:26.317Z,5.80
2019-04-23T11:02:29.677Z,5.90
2019-04-23T11:04:54.328Z,5.87
2019-04-23T11:10:05.568Z,5.85
2019-04-23T11:13:07.817Z,5.60
2019-04-23T11:18:02.777Z,5.60
2019-04-23T11:20:54.031Z,4.97
2019-04-23T11:23:22.465Z,5.33
2019-04-23T11:26:01.333Z,5.65
2019-04-23T11:31:12.045Z,6.00
2019-04-23T11:33:49.680Z,5.58
2019-04-23T11:36:41.117Z,5.20
2019-04-23T11:38:54.776Z,6.00
2019-04-23T11:43:55.355Z,5.70
2019-04-23T11:46:47.519Z,5.28
2019-04-23T11:52:05.609Z,5.20
2019-04-23T11:54:21.394Z,5.45
2019-04-23T11:59:31.689Z,5.75
2019-04-23T12:02:19.369Z,5.37
2019-04-23T12:05:01.019Z,6.10
2019-04-23T12:07:34.401Z,5.30
2019-04-23T12:13:03.191Z,5.90
2019-04-23T12:18:10.900Z,5.40
2019-04-23T12:20:56.795Z,5.58
2019-04-23T12:23:31.995Z,5.62
2019-04-23T12:25:52.844Z,5.55
2019-04-23T12:28:34.967Z,5.15
2019-04-23T12:30:59.310Z,5.45
2019-04-23T12:33:45.267Z,5.12
2019-04-23T12:39:18.509Z,4.58
2019-04-23T12:42:01.740Z,5.12
2019-04-23T12:44:30.619Z,5.75
2019-04-23T12:47:02.597Z,5.22
2019-04-23T12:49:59.108Z,4.65
2019-04-23T12:52:12.695Z,4.72
2019-04-23T12:54:59.130Z,5.03
2019-04-23T12:57:21.356Z,4.78
2019-04-23T12:59:51.595Z,4.92
2019-04-23T13:02:35.055Z,5.80
2019-04-23T13:05:05.062Z,5.17
2019-04-23T13:10:20.954Z,5.12
2019-04-23T13:13:04.606Z,5.20
2019-04-23T13:15:17.370Z,5.60
2019-04-23T13:20:23.187Z,4.95
2019-04-23T13:23:03.153Z,4.58
2019-04-23T13:25:57.078Z,4.55
2019-04-23T13:38:47.282Z,4.58
2019-04-23T13:44:06.066Z,4.22
2019-04-23T13:46:23.073Z,4.42
2019-04-23T13:48:55.095Z,4.40
2019-04-23T13:51:32.700Z,4.25
2019-04-23T13:57:13.976Z,4.33
2019-04-23T13:59:21.898Z,4.40
2019-04-23T14:01:46.756Z,4.15
2019-04-23T14:04:44.650Z,4.15
2019-04-23T14:07:14.903Z,3.90
2019-04-23T14:10:00.575Z,4.50
2019-04-23T14:12:23.990Z,4.70
2019-04-23T14:15:04.475Z,4.25
2019-04-23T14:17:40.880Z,4.50
2019-04-23T14:20:07.216Z,3.50
2019-04-23T14:25:12.349Z,3.70
2019-04-23T14:27:49.440Z,4.05
2019-04-23T14:30:31.402Z,4.60
2019-04-23T14:32:54.116Z,3.95
2019-04-23T14:38:17.774Z,4.25
2019-04-23T14:43:24.827Z,4.17
2019-04-23T14:46:25.019Z,4.00
2019-04-23T14:48:21.363Z,3.95
2019-04-23T14:51:11.274Z,4.20
2019-04-23T14:53:30.338Z,5.15
2019-04-23T14:56:13.111Z,4.70
2019-04-23T15:01:27.393Z,3.75
2019-04-23T15:03:46.701Z,3.95
2019-04-23T15:09:04.230Z,4.00
2019-04-23T15:14:03.533Z,3.62
2019-04-23T15:16:48.355Z,3.55
2019-04-23T15:22:04.832Z,3.80
2019-04-23T15:24:27.541Z,3.35
2019-04-23T15:28:00.775Z,3.87
2019-04-23T15:29:26.720Z,3.80
2019-04-23T15:32:13.787Z,3.45
2019-04-23T15:34:45.495Z,3.77
2019-04-23T15:37:33.579Z,3.70
2019-04-23T15:39:56.142Z,3.95
2019-04-23T15:42:26.051Z,3.67
2019-04-23T15:45:01.360Z,3.80
2019-04-23T15:47:36.095Z,3.65
2019-04-23T15:50:17.624Z,4.22
2019-04-23T15:52:49.766Z,4.28
2019-04-23T15:55:14.192Z,3.52
2019-04-23T16:00:22.433Z,3.92
2019-04-23T16:02:27.655Z,4.15
2019-04-23T16:05:00.114Z,4.22
2019-04-23T16:07:51.855Z,4.00
2019-04-23T16:10:44.868Z,4.00
2019-04-23T16:13:14.953Z,4.42
2019-04-23T16:15:45.382Z,4.45
2019-04-23T16:18:41.188Z,3.85
2019-04-23T16:21:05.035Z,3.90
2019-04-23T16:23:35.617Z,4.10
2019-04-23T16:26:14.258Z,4.17
2019-04-23T16:31:34.666Z,4.50
2019-04-23T16:34:19.470Z,4.40
2019-04-23T16:36:54.690Z,4.85
2019-04-23T16:39:22.216Z,4.60
2019-04-23T16:42:03.964Z,4.92
2019-04-23T16:44:38.300Z,4.92
2019-04-23T16:47:14.495Z,4.80
2019-04-23T16:49:44.593Z,4.53
2019-04-23T16:52:19.285Z,4.50
2019-04-23T16:57:33.230Z,4.50
2019-04-23T17:05:12.503Z,4.87
2019-04-23T17:07:39.992Z,4.80
2019-04-23T17:10:23.482Z,4.75
2019-04-23T17:12:52.931Z,4.70
2019-04-23T17:15:29.088Z,5.47
2019-04-23T17:17:56.135Z,4.72
2019-04-23T17:20:30.506Z,4.53
2019-04-23T17:23:10.199Z,4.75
2019-04-23T17:25:41.874Z,5.10
2019-04-23T17:28:20.195Z,5.00
2019-04-23T17:30:52.353Z,4.45
2019-04-23T17:33:32.773Z,5.03
2019-04-23T17:39:02.683Z,5.08
2019-04-23T17:41:38.938Z,4.62
2019-04-23T17:44:18.649Z,4.70
2019-04-23T17:49:15.206Z,4.67
2019-04-23T17:51:49.440Z,4.60
2019-04-23T17:54:26.955Z,4.50
2019-04-23T17:57:10.584Z,5.10
2019-04-23T18:00:10.003Z,4.97
2019-04-23T18:05:12.582Z,4.90
2019-04-23T18:10:24.676Z,4.75
2019-04-23T18:15:17.679Z,4.80
2019-04-23T18:18:02.307Z,4.92
2019-04-23T18:20:54.372Z,4.78
2019-04-23T18:23:15.070Z,4.75
2019-04-23T18:26:04.025Z,5.00
2019-04-23T18:28:42.279Z,5.10
2019-04-23T18:31:31.618Z,4.90
2019-04-23T18:36:26.143Z,4.67
2019-04-23T18:39:06.331Z,4.55
2019-04-23T18:41:43.045Z,4.70
2019-04-23T18:44:23.369Z,4.50
2019-04-23T18:49:28.106Z,4.12
2019-04-23T18:52:22.272Z,4.70
2019-04-23T18:54:28.529Z,4.47
2019-04-23T18:59:46.816Z,4.37
2019-04-23T19:02:45.381Z,4.35
2019-04-23T19:08:02.991Z,4.53
2019-04-23T19:10:52.254Z,4.20
2019-04-23T19:13:24.938Z,4.08
2019-04-23T19:15:50.973Z,4.62
2019-04-23T19:18:35.578Z,4.40
2019-04-23T19:21:08.921Z,4.75
2019-04-23T19:23:50.834Z,4.08
2019-04-23T19:26:15.806Z,4.58
2019-04-23T19:31:46.186Z,5.03
2019-04-23T19:36:54.758Z,5.33
2019-04-23T19:39:26.171Z,5.20
2019-04-23T19:42:00.597Z,5.35
2019-04-23T19:44:34.463Z,5.00
2019-04-23T19:47:19.376Z,4.65
2019-04-23T19:49:36.970Z,4.72
2019-04-23T19:52:07.972Z,4.42
2019-04-23T19:57:19.038Z,4.58
2019-04-23T20:02:45.229Z,4.58
2019-04-23T20:04:59.568Z,4.25
2019-04-23T20:07:43.722Z,4.92
2019-04-23T20:10:21.306Z,4.30
2019-04-23T20:12:40.041Z,4.45
2019-04-23T20:15:08.260Z,4.72
2019-04-23T20:17:53.055Z,5.20
2019-04-23T20:20:25.640Z,5.40
2019-04-23T20:26:05.598Z,4.70
2019-04-23T20:28:49.290Z,5.15
2019-04-23T20:31:57.238Z,4.83
2019-04-23T20:36:40.081Z,4.87
2019-04-23T20:39:17.274Z,5.17
2019-04-23T20:42:07.891Z,5.35
2019-04-23T20:47:08.585Z,5.80
2019-04-23T20:57:42.870Z,5.25
2019-04-23T21:03:04.968Z,5.50
2019-04-23T21:05:20.929Z,4.50
2019-04-23T21:18:15.666Z,5.37
2019-04-23T21:25:53.568Z,6.00
2019-04-23T21:28:40.085Z,5.70
2019-04-23T21:31:11.584Z,5.45
2019-04-23T21:33:59.322Z,5.30
2019-04-23T21:37:05.365Z,5.78
2019-04-23T21:40:04.698Z,5.57
2019-04-23T21:42:41.108Z,5.07
2019-04-23T21:45:09.008Z,6.03
2019-04-23T21:47:58.878Z,5.90
2019-04-23T21:50:25.718Z,6.03
2019-04-23T21:52:54.236Z,5.57
2019-04-23T21:55:32.828Z,5.33
2019-04-23T21:58:07.543Z,5.43
2019-04-23T22:00:38.950Z,5.60
2019-04-23T22:03:11.519Z,5.93
2019-04-23T22:05:58.286Z,6.30
2019-04-23T22:08:05.772Z,6.07
2019-04-23T22:10:57.315Z,5.93
2019-04-23T22:13:29.674Z,6.63
2019-04-23T22:16:10.796Z,6.10
2019-04-23T22:18:37.985Z,6.37
2019-04-23T22:21:05.074Z,6.10
2019-04-23T22:23:52.911Z,6.23
2019-04-23T22:26:16.261Z,6.33
2019-04-23T22:28:57.818Z,5.33
2019-04-23T22:31:31.761Z,6.20
2019-04-23T22:34:04.866Z,5.53
2019-04-23T22:36:28.613Z,5.70
2019-04-23T22:39:03.466Z,6.00
2019-04-23T22:41:41.654Z,6.40
2019-04-23T22:44:12.146Z,6.10
2019-04-23T22:46:53.702Z,6.30
2019-04-23T22:52:06.001Z,6.03
2019-04-23T22:54:31.771Z,6.17
2019-04-23T22:57:00.583Z,6.40
2019-04-23T22:59:51.809Z,7.07
2019-04-23T23:02:25.528Z,6.70
2019-04-23T23:05:07.454Z,7.00
2019-04-23T23:07:41.506Z,7.03
2019-04-23T23:12:53.244Z,6.73
2019-04-23T23:15:14.862Z,7.00
2019-04-23T23:17:58.439Z,6.40
2019-04-23T23:23:05.670Z,6.57
2019-04-23T23:28:22.695Z,7.13
2019-04-23T23:30:51.290Z,6.70
2019-04-23T23:33:17.253Z,6.73
2019-04-23T23:35:54.828Z,6.90
2019-04-23T23:38:27.430Z,6.90
2019-04-23T23:41:07.720Z,7.10
2019-04-23T23:46:17.293Z,7.30
2019-04-23T23:48:35.977Z,7.10
2019-04-23T23:51:21.824Z,6.63
2019-04-23T23:56:15.803Z,6.50
